Time;durP1;ratioP1;P1;durP2;ratioP2;P2;SDS_P1;SDS_P2;PMS_P1;PMS_P2;Temp;Humidity;BMP_temperature;BMP_pressure;BME280_temperature;BME280_humidity;BME280_pressure;Samples;Min_cycle;Max_cycle;Signal;HPM_P1;HPM_P2
2023/09/28 00:01:17;;;;;;;4.00;3.70;;;;;;;23.28;67.99;97631.72;5011267;28;20229;-23
2023/09/28 00:03:45;;;;;;;4.27;3.90;;;;;;;23.30;67.90;97639.44;5010889;28;20221;-22
2023/09/28 00:06:12;;;;;;;4.23;3.53;;;;;;;23.29;68.19;97638.56;5003776;28;20607;-23
2023/09/28 00:08:38;;;;;;;4.23;3.87;;;;;;;23.30;68.09;97642.00;5009731;28;20202;-23
2023/09/28 00:11:05;;;;;;;4.37;4.00;;;;;;;23.30;68.13;97645.41;5009763;28;20233;-23
2023/09/28 00:13:32;;;;;;;4.00;3.70;;;;;;;23.30;67.98;97640.28;5009353;28;20206;-24
2023/09/28 00:15:58;;;;;;;4.23;3.90;;;;;;;23.30;67.87;97642.84;5001822;28;20670;-23
2023/09/28 00:18:25;;;;;;;4.20;3.80;;;;;;;23.31;67.79;97643.72;5000536;28;20214;-23
2023/09/28 00:20:52;;;;;;;4.00;3.63;;;;;;;23.30;67.81;97649.69;4998974;28;20582;-23
2023/09/28 00:23:18;;;;;;;4.30;4.00;;;;;;;23.30;68.21;97657.38;5010815;28;20285;-23
2023/09/28 00:25:46;;;;;;;4.20;3.80;;;;;;;23.29;68.08;97663.31;5006719;28;20221;-23
2023/09/28 00:28:13;;;;;;;4.03;3.67;;;;;;;23.28;68.00;97666.72;5007839;28;20202;-22
2023/09/28 00:30:40;;;;;;;4.10;3.80;;;;;;;23.28;68.01;97664.16;5011176;28;20234;-23
2023/09/28 00:33:06;;;;;;;3.90;3.60;;;;;;;23.27;68.21;97662.44;5005507;28;20203;-23
2023/09/28 00:35:33;;;;;;;3.83;3.43;;;;;;;23.27;68.11;97673.53;5005915;28;20206;-22
2023/09/28 00:38:00;;;;;;;3.83;3.53;;;;;;;23.28;68.11;97671.88;5004753;28;20297;-23
2023/09/28 00:40:31;;;;;;;4.40;4.00;;;;;;;23.28;68.10;97674.44;5007593;28;20222;-23
2023/09/28 00:42:59;;;;;;;4.30;3.90;;;;;;;23.27;68.18;97677.84;5009749;28;20268;-23
2023/09/28 00:45:26;;;;;;;4.37;4.07;;;;;;;23.29;68.08;97673.59;5010664;28;20222;-24
2023/09/28 00:48:05;;;;;;;4.10;3.70;;;;;;;23.29;68.04;97673.59;5006288;28;20199;-23
2023/09/28 00:50:31;;;;;;;4.33;4.03;;;;;;;23.28;68.12;97667.63;5005557;28;20226;-23
2023/09/28 00:52:59;;;;;;;3.80;3.50;;;;;;;23.29;68.08;97677.03;5005418;28;20203;-23
2023/09/28 00:55:27;;;;;;;3.90;3.60;;;;;;;23.24;68.10;97660.66;5000209;28;20297;-24
2023/09/28 00:57:57;;;;;;;4.20;3.90;;;;;;;23.30;67.93;97677.91;5002861;28;20637;-23
2023/09/28 01:00:27;;;;;;;4.10;3.70;;;;;;;23.29;67.91;97678.72;5009020;28;20265;-23
2023/09/28 01:02:58;;;;;;;4.20;3.90;;;;;;;23.23;68.02;97666.59;5007652;28;20203;-23
2023/09/28 01:05:33;;;;;;;3.83;3.53;;;;;;;23.28;68.23;97680.44;5005433;28;20280;-22
2023/09/28 01:08:18;;;;;;;3.93;3.60;;;;;;;23.28;68.35;97682.13;5010386;28;20248;-22
2023/09/28 01:10:45;;;;;;;4.13;3.83;;;;;;;23.27;67.96;97681.25;5004250;28;20218;-23
2023/09/28 01:13:12;;;;;;;4.20;3.90;;;;;;;23.27;68.20;97677.84;5003817;28;20208;-23
2023/09/28 01:15:40;;;;;;;4.10;3.80;;;;;;;23.26;68.20;97674.38;5003602;28;20203;-23
2023/09/28 01:18:10;;;;;;;4.00;3.70;;;;;;;23.27;68.06;97673.53;5014708;28;20234;-24
2023/09/28 01:20:43;;;;;;;4.30;3.90;;;;;;;23.27;68.11;97678.69;5009082;28;20230;-23
2023/09/28 01:23:09;;;;;;;4.20;3.90;;;;;;;23.28;68.06;97683.00;5013923;28;20198;-23
2023/09/28 01:25:37;;;;;;;4.23;3.60;;;;;;;23.28;68.02;97675.31;5000911;28;20234;-24
2023/09/28 01:28:05;;;;;;;4.20;3.67;;;;;;;23.29;68.24;97677.03;5001141;28;20761;-23
2023/09/28 01:30:32;;;;;;;4.20;3.80;;;;;;;23.26;67.91;97676.94;5008402;28;20519;-26
2023/09/28 01:32:58;;;;;;;4.00;3.70;;;;;;;23.30;68.19;97680.47;5007852;28;20560;-24
2023/09/28 01:35:27;;;;;;;4.20;3.90;;;;;;;23.29;67.93;97676.16;5002833;28;20680;-23
2023/09/28 01:38:26;;;;;;;4.10;3.80;;;;;;;23.29;68.01;97679.59;5013534;28;20210;-23
2023/09/28 01:40:53;;;;;;;4.37;3.97;;;;;;;23.29;67.83;97676.16;5001800;28;20222;-23
2023/09/28 01:43:19;;;;;;;3.80;3.50;;;;;;;23.28;68.08;97667.63;4995162;28;20218;-23
2023/09/28 01:45:46;;;;;;;4.33;3.97;;;;;;;23.28;68.16;97677.00;5005642;28;20547;-22
2023/09/28 01:48:14;;;;;;;4.50;4.10;;;;;;;23.28;68.09;97671.88;5003355;28;20623;-23
2023/09/28 01:50:40;;;;;;;4.40;4.00;;;;;;;23.28;67.82;97677.00;5003039;28;20217;-23
2023/09/28 01:53:07;;;;;;;3.90;3.60;;;;;;;23.27;67.97;97676.13;5013214;28;20557;-23
2023/09/28 01:55:34;;;;;;;3.93;3.63;;;;;;;23.28;68.09;97679.56;5005791;28;20190;-22
2023/09/28 01:58:02;;;;;;;4.00;3.70;;;;;;;23.27;68.01;97676.13;5008762;28;20213;-23
2023/09/28 02:00:29;;;;;;;4.03;3.73;;;;;;;23.10;68.11;97635.47;5011464;28;20300;-22
2023/09/28 02:02:56;;;;;;;4.20;3.80;;;;;;;23.28;68.02;97669.28;5010939;28;20194;-24
2023/09/28 02:05:23;;;;;;;3.57;3.27;;;;;;;23.29;67.83;97676.16;5011635;28;20222;-24
2023/09/28 02:07:50;;;;;;;3.70;3.40;;;;;;;23.23;68.11;97658.00;5001532;28;20695;-23
2023/09/28 02:10:17;;;;;;;4.20;3.90;;;;;;;23.31;67.89;97671.94;5010713;28;20226;-22
2023/09/28 02:12:44;;;;;;;3.90;3.60;;;;;;;23.29;67.89;97661.63;5005420;28;20628;-24
2023/09/28 02:15:14;;;;;;;3.90;3.60;;;;;;;23.29;67.58;97665.88;5005124;28;20244;-23
2023/09/28 02:17:44;;;;;;;3.90;3.60;;;;;;;23.29;67.95;97660.75;5007030;28;20208;-23
2023/09/28 02:20:15;;;;;;;4.13;3.83;;;;;;;23.28;67.88;97659.91;5003385;28;20314;-23
2023/09/28 02:22:46;;;;;;;4.33;3.97;;;;;;;23.27;67.84;97665.84;5011594;28;20687;-23
2023/09/28 02:25:17;;;;;;;3.50;3.20;;;;;;;23.27;67.86;97665.84;5008648;28;20203;-23
2023/09/28 02:27:45;;;;;;;4.63;3.80;;;;;;;23.27;67.84;97670.97;5010811;28;20228;-23
2023/09/28 02:30:14;;;;;;;4.00;3.70;;;;;;;23.27;68.10;97663.28;5011099;28;20222;-22
2023/09/28 02:32:40;;;;;;;4.30;4.00;;;;;;;23.27;67.90;97673.53;5003462;28;20233;-23
2023/09/28 02:35:08;;;;;;;4.00;3.70;;;;;;;23.27;68.01;97673.53;5006847;28;20673;-22
2023/09/28 02:37:35;;;;;;;3.90;3.60;;;;;;;23.27;67.94;97676.13;5011617;28;20285;-22
2023/09/28 02:40:05;;;;;;;4.13;3.83;;;;;;;23.24;67.94;97668.34;4999360;28;20603;-22
2023/09/28 02:42:32;;;;;;;4.30;4.00;;;;;;;23.29;67.93;97676.16;4999920;28;20214;-23
2023/09/28 02:44:59;;;;;;;4.37;3.97;;;;;;;23.29;67.83;97674.47;4998373;28;20230;-23
2023/09/28 02:47:29;;;;;;;4.00;3.70;;;;;;;23.29;68.11;97679.59;5008281;28;20229;-22
2023/09/28 02:49:55;;;;;;;4.20;3.90;;;;;;;23.29;67.80;97684.72;5011305;28;20241;-22
2023/09/28 02:52:22;;;;;;;3.70;3.40;;;;;;;23.29;67.78;97687.28;5003673;28;20297;-23
2023/09/28 02:54:49;;;;;;;4.17;3.87;;;;;;;23.30;67.68;97698.44;5012119;28;20206;-23
2023/09/28 02:57:15;;;;;;;4.00;3.70;;;;;;;23.29;67.78;97700.09;5010109;28;20213;-23
2023/09/28 02:59:43;;;;;;;4.00;3.70;;;;;;;23.29;67.79;97709.50;5012440;28;20617;-22
2023/09/28 03:02:09;;;;;;;4.13;3.83;;;;;;;23.28;67.60;97703.50;5007754;28;20231;-23
2023/09/28 03:04:36;;;;;;;4.80;4.40;;;;;;;23.27;68.08;97706.03;5008022;28;20299;-24
2023/09/28 03:07:02;;;;;;;4.37;3.97;;;;;;;23.27;67.98;97708.59;5003930;28;20715;-23
2023/09/28 03:09:29;;;;;;;4.00;3.70;;;;;;;23.27;68.09;97709.44;5011848;28;20234;-25
2023/09/28 03:11:56;;;;;;;4.10;3.80;;;;;;;23.27;67.91;97714.56;5003134;28;20226;-23
2023/09/28 03:14:23;;;;;;;4.10;3.80;;;;;;;23.27;68.14;97718.84;5009626;28;20738;-23
2023/09/28 03:16:50;;;;;;;4.23;3.93;;;;;;;23.28;67.75;97712.91;5009443;28;20206;-23
2023/09/28 03:19:16;;;;;;;4.03;3.73;;;;;;;23.28;67.69;97712.91;5009800;28;20619;-23
2023/09/28 03:21:44;;;;;;;4.33;3.93;;;;;;;23.29;67.79;97718.06;5011092;28;20218;-23
2023/09/28 03:24:10;;;;;;;4.10;3.80;;;;;;;23.29;67.68;97722.31;5004912;28;20198;-23
2023/09/28 03:26:37;;;;;;;3.80;3.50;;;;;;;23.29;67.90;97719.75;5011701;28;20217;-23
2023/09/28 03:29:04;;;;;;;4.33;4.03;;;;;;;23.29;67.81;97727.44;5008393;28;20221;-23
2023/09/28 03:31:32;;;;;;;3.90;3.60;;;;;;;23.27;67.70;97714.56;5003689;28;20613;-22
2023/09/28 03:34:01;;;;;;;3.97;3.67;;;;;;;23.29;67.62;97717.19;5011845;28;20668;-23
2023/09/28 03:36:30;;;;;;;3.90;3.60;;;;;;;23.28;67.79;97721.47;5004541;28;20202;-23
2023/09/28 03:38:57;;;;;;;4.07;3.77;;;;;;;23.28;67.69;97723.16;5010925;28;20201;-23
2023/09/28 03:41:25;;;;;;;4.10;3.80;;;;;;;23.27;67.59;97713.72;5011189;28;20272;-23
2023/09/28 03:43:52;;;;;;;3.97;3.67;;;;;;;23.26;67.75;97719.66;5011605;28;20201;-22
2023/09/28 03:46:19;;;;;;;4.43;4.07;;;;;;;23.26;68.03;97712.84;4999819;28;20226;-23
2023/09/28 03:48:46;;;;;;;4.00;3.70;;;;;;;23.26;68.02;97715.41;5011708;28;20261;-23
2023/09/28 03:51:14;;;;;;;4.20;3.90;;;;;;;23.27;67.77;97714.56;5011490;28;20226;-23
2023/09/28 03:53:41;;;;;;;3.80;3.50;;;;;;;23.26;67.94;97723.13;5010001;28;20260;-23
2023/09/28 03:56:08;;;;;;;4.13;3.83;;;;;;;23.27;67.84;97724.00;5011705;28;20260;-23
2023/09/28 03:58:34;;;;;;;4.10;3.80;;;;;;;23.26;68.00;97720.53;5002984;28;20202;-23
2023/09/28 04:01:03;;;;;;;3.80;3.50;;;;;;;23.27;67.82;97727.41;5006502;28;20230;-23
2023/09/28 04:03:30;;;;;;;4.00;3.70;;;;;;;23.27;67.62;97726.56;5005448;28;20297;-23
2023/09/28 04:05:56;;;;;;;4.37;4.00;;;;;;;23.28;67.77;97728.28;5003713;28;20222;-23
2023/09/28 04:08:23;;;;;;;3.87;3.57;;;;;;;23.28;67.82;97724.03;5011372;28;20669;-23
2023/09/28 04:10:50;;;;;;;4.33;3.90;;;;;;;23.28;67.70;97720.59;5008865;28;20224;-23
2023/09/28 04:13:17;;;;;;;3.93;3.63;;;;;;;23.28;67.84;97726.59;5008574;28;20262;-23
2023/09/28 04:15:43;;;;;;;3.90;3.60;;;;;;;23.27;67.68;97727.41;5002409;28;20202;-22
2023/09/28 04:18:10;;;;;;;4.00;3.70;;;;;;;23.26;67.79;97737.63;5010232;28;20236;-23
2023/09/28 04:20:37;;;;;;;4.20;3.80;;;;;;;23.26;68.01;97741.06;5010533;28;20218;-23
2023/09/28 04:23:05;;;;;;;4.07;3.77;;;;;;;23.26;67.87;97742.75;5004515;28;20206;-22
2023/09/28 04:25:34;;;;;;;4.40;4.10;;;;;;;23.26;67.99;97737.63;5004151;28;20246;-22
2023/09/28 04:28:01;;;;;;;4.17;3.83;;;;;;;23.26;67.77;97737.63;5010077;28;20631;-23
2023/09/28 04:30:27;;;;;;;4.17;3.77;;;;;;;23.26;67.76;97740.19;5010315;28;20230;-23
2023/09/28 04:32:54;;;;;;;4.33;4.00;;;;;;;23.26;68.02;97737.63;5007325;28;20202;-23
2023/09/28 04:35:21;;;;;;;3.80;3.50;;;;;;;23.25;68.07;97731.66;5011648;28;20540;-22
2023/09/28 04:37:48;;;;;;;3.53;3.33;;;;;;;23.27;67.90;97741.94;5010267;28;20225;-22
2023/09/28 04:40:14;;;;;;;4.17;3.70;;;;;;;23.28;68.21;97738.53;5011161;28;20226;-23
2023/09/28 04:42:42;;;;;;;4.00;3.70;;;;;;;23.28;67.91;97738.53;5010779;28;20202;-23
2023/09/28 04:45:09;;;;;;;4.50;4.10;;;;;;;23.27;67.73;97737.66;5004407;28;20199;-22
2023/09/28 04:47:36;;;;;;;4.50;4.10;;;;;;;23.27;67.62;97741.94;5027089;23;20424;-25
2023/09/28 04:50:04;;;;;;;4.33;3.93;;;;;;;23.27;67.51;97741.94;5018663;28;20217;-25
2023/09/28 04:52:31;;;;;;;6.53;4.00;;;;;;;23.26;67.74;97746.19;5024344;28;20206;-24
2023/09/28 04:54:59;;;;;;;4.00;3.70;;;;;;;23.25;67.74;97752.16;5020673;28;20329;-25
2023/09/28 04:57:26;;;;;;;4.43;3.60;;;;;;;23.25;67.79;97746.16;5020733;28;20198;-25
2023/09/28 04:59:53;;;;;;;4.53;3.60;;;;;;;23.24;67.73;97750.41;5010006;28;20210;-25
2023/09/28 05:02:20;;;;;;;4.63;4.20;;;;;;;23.24;67.65;97749.56;4998301;28;20670;-25
2023/09/28 05:04:47;;;;;;;4.10;3.70;;;;;;;23.24;67.80;97754.69;5007934;28;20632;-25
2023/09/28 05:07:14;;;;;;;3.80;3.50;;;;;;;23.25;67.72;97753.84;5007108;28;20645;-25
2023/09/28 05:09:42;;;;;;;3.70;3.40;;;;;;;23.25;67.84;97746.16;5011944;28;20647;-25
2023/09/28 05:12:09;;;;;;;3.60;3.30;;;;;;;23.26;67.84;97753.00;5012395;28;20211;-25
2023/09/28 05:14:36;;;;;;;3.83;3.53;;;;;;;23.25;67.53;97752.16;5014402;28;20216;-25
2023/09/28 05:17:02;;;;;;;4.07;3.30;;;;;;;23.25;67.69;97759.84;5013616;28;20202;-25
2023/09/28 05:19:30;;;;;;;3.53;3.23;;;;;;;23.25;67.77;97754.72;5003769;28;20313;-25
2023/09/28 05:21:57;;;;;;;4.20;3.70;;;;;;;23.25;67.62;97757.28;5005669;28;20206;-25
2023/09/28 05:24:23;;;;;;;4.57;4.17;;;;;;;23.26;67.49;97760.69;5004753;28;20452;-25
2023/09/28 05:26:50;;;;;;;4.40;3.53;;;;;;;23.24;67.64;97758.09;4998157;28;20273;-25
2023/09/28 05:29:16;;;;;;;3.90;3.60;;;;;;;23.24;67.67;97764.94;5001451;28;20246;-25
2023/09/28 05:31:43;;;;;;;5.83;4.93;;;;;;;23.24;67.10;97772.63;5008994;28;20217;-25
2023/09/28 05:34:10;;;;;;;6.77;4.57;;;;;;;23.23;66.90;97764.03;5003282;28;20210;-25
2023/09/28 05:36:37;;;;;;;5.93;5.43;;;;;;;23.23;66.84;97763.16;5008654;28;20673;-25
2023/09/28 05:39:03;;;;;;;8.97;6.50;;;;;;;23.22;65.64;97767.44;5013733;28;20233;-25
2023/09/28 05:41:31;;;;;;;7.50;6.80;;;;;;;23.21;65.56;97772.53;5013334;28;20260;-25
2023/09/28 05:43:57;;;;;;;7.37;6.77;;;;;;;23.20;65.00;97771.63;5012720;28;20206;-25
2023/09/28 05:46:24;;;;;;;9.73;8.40;;;;;;;23.20;64.22;97774.22;5010061;28;20904;-25
2023/09/28 05:48:51;;;;;;;9.10;8.30;;;;;;;23.20;63.84;97775.88;5012971;28;20234;-25
2023/09/28 05:51:18;;;;;;;9.17;8.37;;;;;;;23.20;63.65;97776.78;5009744;28;20198;-25
2023/09/28 05:53:44;;;;;;;8.97;8.00;;;;;;;23.20;63.86;97784.47;5009014;28;20249;-25
2023/09/28 05:56:14;;;;;;;8.87;8.13;;;;;;;23.20;63.77;97781.03;5013162;28;20199;-25
2023/09/28 05:58:41;;;;;;;9.83;8.13;;;;;;;23.20;63.89;97786.16;5011563;28;20276;-25
2023/09/28 06:01:12;;;;;;;8.50;7.80;;;;;;;23.20;64.01;97784.47;5012263;28;20202;-25
2023/09/28 06:03:39;;;;;;;8.87;8.03;;;;;;;23.19;63.32;97785.31;5013099;28;20214;-25
2023/09/28 06:06:14;;;;;;;9.13;8.33;;;;;;;23.18;63.13;97786.09;5012355;28;20213;-25
2023/09/28 06:08:41;;;;;;;10.20;8.30;;;;;;;23.19;63.01;97786.97;5006885;28;20273;-25
2023/09/28 06:11:14;;;;;;;10.20;7.93;;;;;;;23.18;62.76;97785.25;5011149;28;20252;-25
2023/09/28 06:13:41;;;;;;;8.63;7.87;;;;;;;23.17;62.64;97786.94;5012924;28;20661;-25
2023/09/28 06:16:25;;;;;;;8.93;8.07;;;;;;;23.17;62.93;97791.19;5011049;28;20202;-25
2023/09/28 06:18:52;;;;;;;9.40;8.50;;;;;;;23.16;62.78;97795.47;5008537;28;20226;-26
2023/09/28 06:21:19;;;;;;;8.80;8.00;;;;;;;23.16;62.83;97794.59;5011219;28;20241;-25
2023/09/28 06:23:46;;;;;;;8.90;8.13;;;;;;;23.16;63.25;97795.47;5006683;28;20577;-25
2023/09/28 06:26:12;;;;;;;8.67;7.77;;;;;;;23.16;62.75;97802.28;5009667;28;20207;-24
2023/09/28 06:28:51;;;;;;;8.20;7.50;;;;;;;23.15;62.79;97805.69;5011998;28;20222;-25
2023/09/28 06:31:19;;;;;;;8.60;7.90;;;;;;;23.15;62.65;97815.94;5004646;28;20241;-25
2023/09/28 06:33:48;;;;;;;9.47;8.57;;;;;;;23.13;62.95;97813.34;5011873;28;20206;-25
2023/09/28 06:36:15;;;;;;;8.90;8.13;;;;;;;23.13;63.18;97809.91;5007196;28;20571;-25
2023/09/28 06:39:03;;;;;;;8.83;8.03;;;;;;;23.09;63.46;97802.94;5012500;28;20664;-25
2023/09/28 06:41:30;;;;;;;8.20;7.50;;;;;;;23.11;63.33;97807.28;5002049;28;20199;-25
2023/09/28 06:43:57;;;;;;;8.93;8.13;;;;;;;23.12;63.50;97814.13;5012680;28;20232;-25
2023/09/28 06:46:24;;;;;;;9.03;8.13;;;;;;;23.12;63.31;97819.28;5010122;28;20293;-25
2023/09/28 06:48:51;;;;;;;8.90;8.10;;;;;;;23.11;63.06;97822.66;5009599;28;20712;-25
2023/09/28 06:51:19;;;;;;;9.00;8.30;;;;;;;23.11;63.29;97825.25;5009347;28;20199;-25
2023/09/28 06:53:46;;;;;;;8.63;7.93;;;;;;;23.11;63.08;97827.81;5007955;28;20194;-25
2023/09/28 06:56:12;;;;;;;8.60;7.80;;;;;;;23.12;63.31;97826.13;5003911;28;20631;-25
2023/09/28 06:58:40;;;;;;;9.53;8.53;;;;;;;23.11;63.31;97826.91;5011569;28;20214;-25
2023/09/28 07:01:08;;;;;;;9.87;7.97;;;;;;;23.08;64.00;97826.84;5002475;28;20755;-25
2023/09/28 07:03:34;;;;;;;12.37;8.03;;;;;;;23.11;63.69;97832.94;5012270;28;20209;-25
2023/09/28 07:06:01;;;;;;;8.47;7.60;;;;;;;23.06;64.04;97828.47;5000929;28;20671;-25
2023/09/28 07:08:28;;;;;;;8.40;7.60;;;;;;;23.12;64.24;97836.38;5008860;28;20230;-25
2023/09/28 07:10:55;;;;;;;8.23;6.83;;;;;;;23.11;64.68;97839.75;5011622;28;20198;-25
2023/09/28 07:13:22;;;;;;;8.07;7.37;;;;;;;23.11;64.63;97845.75;5009856;28;20213;-25
2023/09/28 07:15:49;;;;;;;7.50;6.77;;;;;;;23.13;64.89;97845.78;5012207;28;20194;-25
2023/09/28 07:18:16;;;;;;;7.17;6.50;;;;;;;23.14;64.84;97852.66;5011952;28;20304;-25
2023/09/28 07:20:44;;;;;;;7.20;6.60;;;;;;;23.14;65.04;97852.66;5005434;28;20214;-25
2023/09/28 07:23:10;;;;;;;7.57;6.60;;;;;;;23.14;64.84;97865.47;5011809;28;20206;-25
2023/09/28 07:25:37;;;;;;;14.73;6.77;;;;;;;23.14;64.91;97860.34;5012156;28;20634;-25
2023/09/28 07:28:04;;;;;;;8.17;6.90;;;;;;;23.14;65.05;97862.91;5011099;28;20284;-25
2023/09/28 07:30:31;;;;;;;12.83;7.40;;;;;;;23.12;64.81;97862.84;5001086;28;20257;-26
2023/09/28 07:32:57;;;;;;;8.20;7.40;;;;;;;23.13;64.94;97864.63;5010315;28;20249;-25
2023/09/28 07:35:24;;;;;;;7.57;6.67;;;;;;;23.14;65.18;97874.03;5006766;28;20226;-25
2023/09/28 07:37:51;;;;;;;8.30;7.03;;;;;;;23.10;65.05;97874.78;5011497;28;20625;-26
2023/09/28 07:40:22;;;;;;;7.73;6.97;;;;;;;23.14;65.15;97874.03;5011422;28;20256;-25
2023/09/28 07:43:08;;;;;;;8.27;6.67;;;;;;;23.15;65.32;97867.22;5007116;28;20285;-25
2023/09/28 07:45:36;;;;;;;6.73;6.13;;;;;;;23.13;65.58;97872.31;5003151;28;20631;-25
2023/09/28 07:48:05;;;;;;;7.00;6.40;;;;;;;23.16;65.38;97871.53;5010278;28;20221;-25
2023/09/28 07:50:32;;;;;;;6.67;5.97;;;;;;;23.15;65.41;97874.91;5011315;28;20245;-25
2023/09/28 07:52:59;;;;;;;6.57;5.97;;;;;;;23.17;65.29;97880.94;5011052;28;20232;-25
2023/09/28 07:55:25;;;;;;;6.63;5.80;;;;;;;23.16;65.37;97874.97;5011203;28;20221;-25
2023/09/28 07:57:53;;;;;;;5.83;5.33;;;;;;;23.17;65.41;97875.81;5011721;28;20222;-25
2023/09/28 08:00:37;;;;;;;5.93;5.30;;;;;;;23.17;65.44;97873.25;5001279;28;20198;-25
2023/09/28 08:03:05;;;;;;;5.90;5.40;;;;;;;23.17;65.49;97873.25;5007318;28;20344;-25
2023/09/28 08:05:31;;;;;;;6.27;5.67;;;;;;;23.16;65.55;97869.84;5009315;28;20202;-26
2023/09/28 08:07:58;;;;;;;5.87;5.37;;;;;;;23.17;65.70;97873.25;5004041;28;20226;-25
2023/09/28 08:10:42;;;;;;;5.80;5.30;;;;;;;23.17;65.40;97878.38;4999916;28;20202;-28
2023/09/28 08:13:09;;;;;;;5.90;5.40;;;;;;;23.17;65.78;97875.81;5007138;28;20289;-25
2023/09/28 08:15:39;;;;;;;5.97;5.37;;;;;;;23.17;65.50;97875.81;4998318;28;20673;-25
2023/09/28 08:18:06;;;;;;;5.97;5.37;;;;;;;23.17;65.69;97870.69;5002761;28;20218;-25
2023/09/28 08:20:35;;;;;;;5.70;5.20;;;;;;;23.16;65.51;97864.72;4997162;28;20260;-25
2023/09/28 08:23:04;;;;;;;6.20;5.27;;;;;;;23.17;65.63;97874.13;4996138;28;20209;-25
2023/09/28 08:25:33;;;;;;;5.47;4.97;;;;;;;23.18;65.57;97869.88;5001674;28;20214;-25
2023/09/28 08:27:59;;;;;;;5.47;4.97;;;;;;;23.18;65.85;97868.16;5008155;28;20295;-25
2023/09/28 08:30:26;;;;;;;5.47;4.97;;;;;;;23.19;65.67;97867.34;5009322;28;21216;-25
2023/09/28 08:32:53;;;;;;;5.20;4.80;;;;;;;23.19;65.66;97856.22;5007303;28;20217;-25
2023/09/28 08:35:20;;;;;;;5.73;5.10;;;;;;;23.20;65.79;97865.63;4992253;28;20488;-27
2023/09/28 08:37:47;;;;;;;5.40;4.90;;;;;;;23.21;65.95;97862.28;4991995;28;20677;-25
2023/09/28 08:40:14;;;;;;;5.50;5.10;;;;;;;23.20;65.76;97869.09;4996449;28;20214;-28
2023/09/28 08:42:42;;;;;;;6.17;4.87;;;;;;;23.20;65.71;97860.50;5022595;28;20655;-25
2023/09/28 08:45:14;;;;;;;5.33;4.83;;;;;;;23.19;65.86;97857.09;4994168;28;20551;-25
2023/09/28 08:47:49;;;;;;;5.27;4.70;;;;;;;23.18;65.63;97855.34;4996134;28;20713;-26
2023/09/28 08:50:25;;;;;;;4.80;4.40;;;;;;;23.19;65.86;97849.41;4996721;28;20244;-26
2023/09/28 08:52:53;;;;;;;4.83;4.43;;;;;;;23.18;65.73;97852.78;4996056;28;20736;-26
2023/09/28 08:55:21;;;;;;;5.00;4.60;;;;;;;23.18;65.82;97850.22;4997119;28;20417;-25
2023/09/28 08:57:48;;;;;;;5.00;4.50;;;;;;;23.19;65.72;97857.09;4998161;28;20314;-25
2023/09/28 09:00:15;;;;;;;5.83;3.53;;;;;;;23.19;65.79;97851.97;4995561;28;20818;-25
2023/09/28 09:02:42;;;;;;;4.80;4.40;;;;;;;23.20;65.75;97852.81;4994171;28;20238;-25
2023/09/28 09:05:12;;;;;;;4.20;3.90;;;;;;;23.19;65.72;97854.53;5001298;28;20498;-25
2023/09/28 09:07:41;;;;;;;4.43;4.03;;;;;;;23.21;65.93;97852.00;4996601;28;20289;-25
2023/09/28 09:10:11;;;;;;;4.63;4.23;;;;;;;23.20;65.80;97846.00;5000825;28;20213;-25
2023/09/28 09:12:38;;;;;;;4.50;4.20;;;;;;;23.22;65.90;97848.63;5004624;28;20211;-25
2023/09/28 09:15:05;;;;;;;4.13;3.83;;;;;;;23.21;65.90;97845.16;4996373;28;20203;-25
2023/09/28 09:17:35;;;;;;;4.70;4.30;;;;;;;23.21;65.85;97834.91;4996197;28;20755;-25
2023/09/28 09:20:05;;;;;;;3.90;3.60;;;;;;;23.21;65.63;97845.16;4997330;28;20720;-28
2023/09/28 09:22:32;;;;;;;4.37;4.00;;;;;;;23.21;65.83;97841.75;4996263;28;20621;-25
2023/09/28 09:25:15;;;;;;;4.17;3.77;;;;;;;23.21;65.82;97839.19;4998039;28;20206;-25
2023/09/28 09:27:43;;;;;;;5.53;3.90;;;;;;;23.20;65.83;97828.06;5001707;28;20639;-25
2023/09/28 09:30:14;;;;;;;4.10;3.80;;;;;;;23.20;66.01;97845.13;4995624;28;20616;-26
2023/09/28 09:32:42;;;;;;;4.40;4.00;;;;;;;23.20;65.91;97838.31;4999236;28;20211;-25
2023/09/28 09:35:10;;;;;;;4.13;3.83;;;;;;;23.20;66.11;97833.19;4994848;28;20237;-27
2023/09/28 09:37:41;;;;;;;4.47;4.17;;;;;;;23.21;65.82;97827.22;4996503;28;20229;-27
2023/09/28 09:40:11;;;;;;;4.37;3.97;;;;;;;23.21;65.88;97824.66;4995147;28;20231;-25
2023/09/28 09:42:38;;;;;;;3.97;3.67;;;;;;;23.21;66.06;97827.22;4997493;28;20237;-26
2023/09/28 09:45:05;;;;;;;4.17;3.33;;;;;;;23.22;66.07;97834.09;5000637;28;20291;-25
2023/09/28 09:47:32;;;;;;;4.97;3.73;;;;;;;23.22;66.01;97836.66;4996158;28;20237;-25
2023/09/28 09:49:59;;;;;;;3.80;3.50;;;;;;;23.20;65.76;97832.31;4998553;28;20306;-25
2023/09/28 09:52:26;;;;;;;4.37;3.97;;;;;;;23.23;66.07;97833.28;4981483;28;20206;-25
2023/09/28 09:54:53;;;;;;;4.10;3.70;;;;;;;23.23;66.11;97833.28;5007572;28;20203;-25
2023/09/28 09:57:19;;;;;;;4.03;3.73;;;;;;;23.23;66.05;97840.09;5011752;28;20198;-25
2023/09/28 09:59:49;;;;;;;3.80;3.40;;;;;;;23.23;65.99;97829.81;5008295;28;20199;-25
2023/09/28 10:02:25;;;;;;;4.20;3.90;;;;;;;23.21;66.08;97837.47;5011079;28;20210;-25
2023/09/28 10:04:55;;;;;;;4.00;3.70;;;;;;;23.22;65.90;97835.78;5001876;28;20194;-25
2023/09/28 10:07:25;;;;;;;9.53;3.73;;;;;;;23.21;66.01;97840.03;5010872;28;20206;-25
2023/09/28 10:10:13;;;;;;;3.80;3.50;;;;;;;23.15;66.07;97831.31;5013205;28;20202;-25
2023/09/28 10:12:40;;;;;;;3.53;3.27;;;;;;;23.21;65.89;97842.59;5007505;28;20194;-25
2023/09/28 10:15:08;;;;;;;3.80;3.50;;;;;;;23.21;66.18;97834.91;4996201;28;20203;-25
2023/09/28 10:17:34;;;;;;;4.50;3.80;;;;;;;23.21;66.13;97834.91;4992207;28;20215;-25
2023/09/28 10:20:02;;;;;;;4.00;3.60;;;;;;;23.22;66.06;97828.09;5009942;28;20203;-25
2023/09/28 10:22:29;;;;;;;3.83;3.53;;;;;;;23.22;66.09;97820.41;4982682;28;20234;-25
2023/09/28 10:24:55;;;;;;;4.13;3.40;;;;;;;23.22;66.29;97828.09;5010048;28;20242;-25
2023/09/28 10:27:22;;;;;;;4.00;3.70;;;;;;;23.22;65.69;97828.09;4995349;28;20524;-25
2023/09/28 10:29:49;;;;;;;3.67;3.37;;;;;;;23.22;66.05;97830.66;5011857;28;20199;-25
2023/09/28 10:32:28;;;;;;;3.70;3.40;;;;;;;23.21;65.96;97827.22;5012618;28;20211;-25
2023/09/28 10:35:20;;;;;;;3.37;3.13;;;;;;;23.21;66.18;97837.47;5007586;28;20199;-25
2023/09/28 10:38:15;;;;;;;3.80;3.50;;;;;;;23.22;66.26;97838.34;5007385;28;20705;-25
2023/09/28 10:40:49;;;;;;;4.40;3.30;;;;;;;23.22;66.03;97826.41;5006469;28;20732;-25
2023/09/28 10:43:29;;;;;;;3.90;3.40;;;;;;;23.21;66.18;97821.25;5015623;28;20204;-26
2023/09/28 10:46:03;;;;;;;3.53;3.30;;;;;;;23.21;66.03;97816.97;5008469;28;20695;-25
2023/09/28 10:48:45;;;;;;;4.00;3.30;;;;;;;23.20;66.25;97812.66;4998235;28;20226;-25
2023/09/28 10:51:16;;;;;;;3.67;3.37;;;;;;;23.20;66.26;97812.66;5012181;28;20293;-25
2023/09/28 10:53:43;;;;;;;3.63;3.27;;;;;;;23.21;66.26;97813.56;5012496;28;20198;-25
2023/09/28 10:56:12;;;;;;;3.30;3.03;;;;;;;23.20;66.50;97809.22;5011825;28;20209;-26
2023/09/28 10:58:41;;;;;;;3.90;3.40;;;;;;;23.21;66.08;97813.56;5012426;28;20252;-25
2023/09/28 11:01:10;;;;;;;3.70;3.40;;;;;;;23.20;66.29;97817.81;5004459;28;20256;-25
2023/09/28 11:03:36;;;;;;;4.80;3.00;;;;;;;23.21;66.38;97823.81;5004809;28;20202;-25
2023/09/28 11:06:04;;;;;;;3.63;3.33;;;;;;;23.21;66.59;97827.22;5004282;28;20206;-25
2023/09/28 11:08:32;;;;;;;3.37;3.00;;;;;;;23.21;66.34;97821.25;5002963;28;20295;-25
2023/09/28 11:11:01;;;;;;;3.37;3.07;;;;;;;23.22;66.40;97818.72;5003090;28;20665;-25
2023/09/28 11:13:29;;;;;;;3.07;2.87;;;;;;;23.22;66.49;97816.16;5001599;28;20215;-34
2023/09/28 11:15:56;;;;;;;3.50;3.20;;;;;;;23.22;66.48;97825.53;5009316;28;20202;-25
2023/09/28 11:18:26;;;;;;;5.90;3.10;;;;;;;23.20;66.29;97820.38;5006440;28;20221;-27
2023/09/28 11:20:57;;;;;;;3.47;3.17;;;;;;;23.22;66.35;97828.09;5001570;28;20199;-25
2023/09/28 11:23:24;;;;;;;3.60;3.30;;;;;;;23.17;66.19;97820.28;5012175;28;20350;-25
2023/09/28 11:25:52;;;;;;;3.00;2.80;;;;;;;23.21;66.32;97824.66;5010996;28;20284;-25
2023/09/28 11:28:18;;;;;;;6.90;3.33;;;;;;;23.21;66.48;97819.53;5022273;28;20257;-25
2023/09/28 11:30:45;;;;;;;3.30;3.00;;;;;;;23.11;66.53;97803.84;5003127;28;20632;-25
2023/09/28 11:33:11;;;;;;;3.23;2.93;;;;;;;23.21;66.30;97819.53;5021567;28;20201;-25
2023/09/28 11:35:38;;;;;;;3.27;3.07;;;;;;;23.22;66.66;97818.72;5005682;28;20206;-25
2023/09/28 11:38:10;;;;;;;3.30;3.00;;;;;;;23.22;66.26;97818.72;5005483;28;20210;-24
2023/09/28 11:40:37;;;;;;;2.93;2.73;;;;;;;23.22;66.58;97812.72;5003626;28;20206;-25